Terminal Aerodrome Forecast
Issued by NWS Blacksburg, VA

Current Version | Previous Version | Graphics & Text | Print | Product List | Glossary On
Versions: 1 2 3 4 5 6 7 8 9 10 11 12 13 14 15 16 17 18 19 20 21 22 23 24 25 26 27 28 29 30 31 32 33 34 35 36 37 38 39 40 41 42 43 44 45 46
000
FTUS41 KRNK 270529
TAFBLF
TAF
KBLF 270529Z 2706/2806 VRB03KT P6SM SCT040 BKN140
      TEMPO 2709/2712 5SM BR SCT012 BKN030
     FM271500 26005KT P6SM BKN030
     FM271800 28006KT P6SM VCTS BKN035CB
     FM280200 VRB03KT 5SM BR SCT035 BKN140=

USA.gov is the U.S. government's official web portal to all federal, state and local government web resources and services.